sensor_id;sensor_type;location;lat;lon;timestamp;P1;durP1;ratioP1;P2;durP2;ratioP2
58581;SDS011;44361;51.476;5.700;2022-07-23T00:00:49;8.00;;;5.43;;
58581;SDS011;44361;51.476;5.700;2022-07-23T00:03:15;8.45;;;4.90;;
58581;SDS011;44361;51.476;5.700;2022-07-23T00:05:40;6.95;;;4.80;;
58581;SDS011;44361;51.476;5.700;2022-07-23T00:08:06;7.85;;;5.43;;
58581;SDS011;44361;51.476;5.700;2022-07-23T00:10:32;6.80;;;5.10;;
58581;SDS011;44361;51.476;5.700;2022-07-23T00:12:58;7.22;;;4.90;;
58581;SDS011;44361;51.476;5.700;2022-07-23T00:15:23;9.82;;;5.43;;
58581;SDS011;44361;51.476;5.700;2022-07-23T00:17:49;8.95;;;5.18;;
58581;SDS011;44361;51.476;5.700;2022-07-23T00:20:15;10.07;;;5.90;;
58581;SDS011;44361;51.476;5.700;2022-07-23T00:22:50;6.45;;;5.03;;
58581;SDS011;44361;51.476;5.700;2022-07-23T00:25:18;7.88;;;5.13;;
58581;SDS011;44361;51.476;5.700;2022-07-23T00:27:45;9.75;;;5.38;;
58581;SDS011;44361;51.476;5.700;2022-07-23T00:30:10;8.68;;;5.18;;
58581;SDS011;44361;51.476;5.700;2022-07-23T00:32:47;10.57;;;6.15;;
58581;SDS011;44361;51.476;5.700;2022-07-23T00:35:13;11.93;;;5.53;;
58581;SDS011;44361;51.476;5.700;2022-07-23T00:37:39;7.07;;;5.28;;
58581;SDS011;44361;51.476;5.700;2022-07-23T00:40:05;10.80;;;5.78;;
58581;SDS011;44361;51.476;5.700;2022-07-23T00:42:32;9.88;;;5.43;;
58581;SDS011;44361;51.476;5.700;2022-07-23T00:44:57;10.35;;;5.63;;
58581;SDS011;44361;51.476;5.700;2022-07-23T00:47:23;8.15;;;5.00;;
58581;SDS011;44361;51.476;5.700;2022-07-23T00:49:49;7.53;;;5.63;;
58581;SDS011;44361;51.476;5.700;2022-07-23T00:52:14;11.65;;;5.60;;
58581;SDS011;44361;51.476;5.700;2022-07-23T00:54:41;12.90;;;6.25;;
58581;SDS011;44361;51.476;5.700;2022-07-23T00:57:07;8.77;;;6.15;;
58581;SDS011;44361;51.476;5.700;2022-07-23T00:59:33;9.82;;;6.07;;
58581;SDS011;44361;51.476;5.700;2022-07-23T01:01:59;10.00;;;5.95;;
58581;SDS011;44361;51.476;5.700;2022-07-23T01:04:24;13.32;;;6.22;;
58581;SDS011;44361;51.476;5.700;2022-07-23T01:06:50;11.88;;;6.28;;
58581;SDS011;44361;51.476;5.700;2022-07-23T01:09:15;12.13;;;6.80;;
58581;SDS011;44361;51.476;5.700;2022-07-23T01:11:42;9.27;;;6.15;;
58581;SDS011;44361;51.476;5.700;2022-07-23T01:14:08;8.82;;;5.30;;
58581;SDS011;44361;51.476;5.700;2022-07-23T01:16:36;9.23;;;5.85;;
58581;SDS011;44361;51.476;5.700;2022-07-23T01:19:01;9.20;;;6.07;;
58581;SDS011;44361;51.476;5.700;2022-07-23T01:21:29;11.02;;;6.30;;
58581;SDS011;44361;51.476;5.700;2022-07-23T01:23:55;10.45;;;6.30;;
58581;SDS011;44361;51.476;5.700;2022-07-23T01:26:21;11.23;;;6.25;;
58581;SDS011;44361;51.476;5.700;2022-07-23T01:28:47;8.85;;;6.07;;
58581;SDS011;44361;51.476;5.700;2022-07-23T01:31:12;9.63;;;6.20;;
58581;SDS011;44361;51.476;5.700;2022-07-23T01:33:38;12.85;;;6.65;;
58581;SDS011;44361;51.476;5.700;2022-07-23T01:36:03;11.85;;;6.50;;
58581;SDS011;44361;51.476;5.700;2022-07-23T01:38:29;13.02;;;6.53;;
58581;SDS011;44361;51.476;5.700;2022-07-23T01:40:54;8.73;;;6.18;;
58581;SDS011;44361;51.476;5.700;2022-07-23T01:43:20;9.18;;;6.25;;
58581;SDS011;44361;51.476;5.700;2022-07-23T01:45:45;10.52;;;6.53;;
58581;SDS011;44361;51.476;5.700;2022-07-23T01:48:11;8.68;;;6.50;;
58581;SDS011;44361;51.476;5.700;2022-07-23T01:50:37;10.45;;;6.30;;
58581;SDS011;44361;51.476;5.700;2022-07-23T01:53:02;15.35;;;6.70;;
58581;SDS011;44361;51.476;5.700;2022-07-23T01:55:28;9.80;;;7.07;;
58581;SDS011;44361;51.476;5.700;2022-07-23T01:57:53;12.13;;;6.55;;
58581;SDS011;44361;51.476;5.700;2022-07-23T02:00:19;10.80;;;6.93;;
58581;SDS011;44361;51.476;5.700;2022-07-23T02:02:44;10.23;;;7.22;;
58581;SDS011;44361;51.476;5.700;2022-07-23T02:05:10;11.70;;;6.45;;
58581;SDS011;44361;51.476;5.700;2022-07-23T02:07:36;10.68;;;7.22;;
58581;SDS011;44361;51.476;5.700;2022-07-23T02:10:02;10.05;;;6.72;;
58581;SDS011;44361;51.476;5.700;2022-07-23T02:12:27;11.20;;;7.05;;
58581;SDS011;44361;51.476;5.700;2022-07-23T02:14:53;11.60;;;7.35;;
58581;SDS011;44361;51.476;5.700;2022-07-23T02:17:18;10.88;;;7.05;;
58581;SDS011;44361;51.476;5.700;2022-07-23T02:19:44;10.18;;;7.10;;
58581;SDS011;44361;51.476;5.700;2022-07-23T02:22:09;12.13;;;7.38;;
58581;SDS011;44361;51.476;5.700;2022-07-23T02:24:35;11.35;;;7.72;;
58581;SDS011;44361;51.476;5.700;2022-07-23T02:27:00;12.48;;;7.20;;
58581;SDS011;44361;51.476;5.700;2022-07-23T02:29:26;9.55;;;6.60;;
58581;SDS011;44361;51.476;5.700;2022-07-23T02:31:52;17.67;;;7.60;;
58581;SDS011;44361;51.476;5.700;2022-07-23T02:34:17;9.35;;;7.53;;
58581;SDS011;44361;51.476;5.700;2022-07-23T02:36:43;13.05;;;6.90;;
58581;SDS011;44361;51.476;5.700;2022-07-23T02:39:09;11.95;;;8.27;;
58581;SDS011;44361;51.476;5.700;2022-07-23T02:41:35;9.60;;;7.53;;
58581;SDS011;44361;51.476;5.700;2022-07-23T02:44:00;11.13;;;7.95;;
58581;SDS011;44361;51.476;5.700;2022-07-23T02:46:26;10.02;;;6.75;;
58581;SDS011;44361;51.476;5.700;2022-07-23T02:48:51;10.63;;;6.65;;
58581;SDS011;44361;51.476;5.700;2022-07-23T02:51:17;9.43;;;7.55;;
58581;SDS011;44361;51.476;5.700;2022-07-23T02:53:43;9.70;;;6.90;;
58581;SDS011;44361;51.476;5.700;2022-07-23T02:56:08;10.63;;;7.30;;
58581;SDS011;44361;51.476;5.700;2022-07-23T02:58:34;15.65;;;7.88;;
58581;SDS011;44361;51.476;5.700;2022-07-23T03:00:59;11.35;;;7.22;;
58581;SDS011;44361;51.476;5.700;2022-07-23T03:03:25;10.45;;;6.95;;
58581;SDS011;44361;51.476;5.700;2022-07-23T03:05:50;10.23;;;7.72;;
58581;SDS011;44361;51.476;5.700;2022-07-23T03:08:16;12.60;;;7.80;;
58581;SDS011;44361;51.476;5.700;2022-07-23T03:10:42;10.80;;;7.28;;
58581;SDS011;44361;51.476;5.700;2022-07-23T03:13:07;10.65;;;7.20;;
58581;SDS011;44361;51.476;5.700;2022-07-23T03:15:33;12.57;;;7.25;;
58581;SDS011;44361;51.476;5.700;2022-07-23T03:17:58;10.43;;;7.53;;
58581;SDS011;44361;51.476;5.700;2022-07-23T03:20:24;11.70;;;7.78;;
58581;SDS011;44361;51.476;5.700;2022-07-23T03:22:49;11.15;;;7.63;;
58581;SDS011;44361;51.476;5.700;2022-07-23T03:25:15;11.45;;;7.97;;
58581;SDS011;44361;51.476;5.700;2022-07-23T03:27:40;10.55;;;7.63;;
58581;SDS011;44361;51.476;5.700;2022-07-23T03:30:06;11.38;;;8.48;;
58581;SDS011;44361;51.476;5.700;2022-07-23T03:32:32;12.00;;;8.07;;
58581;SDS011;44361;51.476;5.700;2022-07-23T03:34:58;12.65;;;8.68;;
58581;SDS011;44361;51.476;5.700;2022-07-23T03:37:24;9.95;;;7.68;;
58581;SDS011;44361;51.476;5.700;2022-07-23T03:39:49;13.93;;;9.07;;
58581;SDS011;44361;51.476;5.700;2022-07-23T03:42:15;12.45;;;8.82;;
58581;SDS011;44361;51.476;5.700;2022-07-23T03:44:41;16.42;;;9.05;;
58581;SDS011;44361;51.476;5.700;2022-07-23T03:47:06;13.77;;;8.35;;
58581;SDS011;44361;51.476;5.700;2022-07-23T03:49:32;17.02;;;9.88;;
58581;SDS011;44361;51.476;5.700;2022-07-23T03:51:58;16.95;;;8.13;;
58581;SDS011;44361;51.476;5.700;2022-07-23T03:54:23;14.93;;;8.70;;
58581;SDS011;44361;51.476;5.700;2022-07-23T03:56:49;12.05;;;9.27;;
58581;SDS011;44361;51.476;5.700;2022-07-23T03:59:14;14.93;;;9.07;;
58581;SDS011;44361;51.476;5.700;2022-07-23T04:01:40;12.30;;;8.10;;
58581;SDS011;44361;51.476;5.700;2022-07-23T04:04:06;14.13;;;9.10;;
58581;SDS011;44361;51.476;5.700;2022-07-23T04:06:33;16.33;;;10.30;;
58581;SDS011;44361;51.476;5.700;2022-07-23T04:08:59;14.50;;;9.60;;
58581;SDS011;44361;51.476;5.700;2022-07-23T04:11:24;14.43;;;8.55;;
58581;SDS011;44361;51.476;5.700;2022-07-23T04:13:50;17.40;;;8.90;;
58581;SDS011;44361;51.476;5.700;2022-07-23T04:16:15;12.80;;;8.90;;
58581;SDS011;44361;51.476;5.700;2022-07-23T04:18:41;11.00;;;8.43;;
58581;SDS011;44361;51.476;5.700;2022-07-23T04:21:06;11.55;;;8.95;;
58581;SDS011;44361;51.476;5.700;2022-07-23T04:23:32;13.13;;;9.43;;
58581;SDS011;44361;51.476;5.700;2022-07-23T04:25:57;16.50;;;9.02;;
58581;SDS011;44361;51.476;5.700;2022-07-23T04:28:23;13.98;;;9.88;;
58581;SDS011;44361;51.476;5.700;2022-07-23T04:30:49;13.15;;;10.15;;
58581;SDS011;44361;51.476;5.700;2022-07-23T04:33:14;16.83;;;9.85;;
58581;SDS011;44361;51.476;5.700;2022-07-23T04:35:40;12.52;;;9.18;;
58581;SDS011;44361;51.476;5.700;2022-07-23T04:38:05;12.48;;;9.85;;
58581;SDS011;44361;51.476;5.700;2022-07-23T04:40:31;11.57;;;9.18;;
58581;SDS011;44361;51.476;5.700;2022-07-23T04:42:57;17.63;;;9.73;;
58581;SDS011;44361;51.476;5.700;2022-07-23T04:45:22;15.23;;;9.88;;
58581;SDS011;44361;51.476;5.700;2022-07-23T04:47:49;13.50;;;8.98;;
58581;SDS011;44361;51.476;5.700;2022-07-23T04:50:15;20.67;;;9.95;;
58581;SDS011;44361;51.476;5.700;2022-07-23T04:52:44;11.75;;;9.20;;
58581;SDS011;44361;51.476;5.700;2022-07-23T04:55:10;15.65;;;9.75;;
58581;SDS011;44361;51.476;5.700;2022-07-23T04:57:35;13.52;;;8.95;;
58581;SDS011;44361;51.476;5.700;2022-07-23T05:00:02;13.80;;;9.38;;
58581;SDS011;44361;51.476;5.700;2022-07-23T05:02:28;12.18;;;9.07;;
58581;SDS011;44361;51.476;5.700;2022-07-23T05:04:54;15.65;;;9.25;;
58581;SDS011;44361;51.476;5.700;2022-07-23T05:07:19;13.07;;;10.38;;
58581;SDS011;44361;51.476;5.700;2022-07-23T05:09:45;13.73;;;9.32;;
58581;SDS011;44361;51.476;5.700;2022-07-23T05:12:10;13.48;;;9.30;;
58581;SDS011;44361;51.476;5.700;2022-07-23T05:14:36;9.30;;;8.02;;
58581;SDS011;44361;51.476;5.700;2022-07-23T05:17:02;10.93;;;7.35;;
58581;SDS011;44361;51.476;5.700;2022-07-23T05:19:27;11.00;;;7.07;;
58581;SDS011;44361;51.476;5.700;2022-07-23T05:21:53;11.50;;;7.00;;
58581;SDS011;44361;51.476;5.700;2022-07-23T05:24:18;10.07;;;6.53;;
58581;SDS011;44361;51.476;5.700;2022-07-23T05:26:44;10.07;;;5.90;;
58581;SDS011;44361;51.476;5.700;2022-07-23T05:29:09;10.70;;;5.97;;
58581;SDS011;44361;51.476;5.700;2022-07-23T05:31:35;7.28;;;5.70;;
58581;SDS011;44361;51.476;5.700;2022-07-23T05:34:00;8.98;;;5.95;;
58581;SDS011;44361;51.476;5.700;2022-07-23T05:36:26;7.70;;;5.80;;
58581;SDS011;44361;51.476;5.700;2022-07-23T05:38:52;8.30;;;5.50;;
58581;SDS011;44361;51.476;5.700;2022-07-23T05:41:17;8.80;;;5.43;;
58581;SDS011;44361;51.476;5.700;2022-07-23T05:43:43;6.53;;;5.15;;
58581;SDS011;44361;51.476;5.700;2022-07-23T05:46:08;8.52;;;4.75;;
58581;SDS011;44361;51.476;5.700;2022-07-23T05:48:34;8.25;;;5.47;;
58581;SDS011;44361;51.476;5.700;2022-07-23T05:50:59;9.80;;;5.57;;
58581;SDS011;44361;51.476;5.700;2022-07-23T05:53:25;6.70;;;5.32;;
58581;SDS011;44361;51.476;5.700;2022-07-23T05:55:51;7.72;;;5.00;;
58581;SDS011;44361;51.476;5.700;2022-07-23T05:58:17;7.93;;;5.22;;
58581;SDS011;44361;51.476;5.700;2022-07-23T06:00:42;6.20;;;4.93;;
58581;SDS011;44361;51.476;5.700;2022-07-23T06:03:08;6.18;;;4.80;;
58581;SDS011;44361;51.476;5.700;2022-07-23T06:05:33;7.97;;;5.55;;
58581;SDS011;44361;51.476;5.700;2022-07-23T06:07:59;9.00;;;5.35;;
58581;SDS011;44361;51.476;5.700;2022-07-23T06:10:25;8.35;;;5.22;;
58581;SDS011;44361;51.476;5.700;2022-07-23T06:12:50;6.25;;;4.80;;
58581;SDS011;44361;51.476;5.700;2022-07-23T06:15:16;6.65;;;4.80;;
58581;SDS011;44361;51.476;5.700;2022-07-23T06:17:41;5.85;;;4.60;;
58581;SDS011;44361;51.476;5.700;2022-07-23T06:20:08;5.97;;;4.40;;
58581;SDS011;44361;51.476;5.700;2022-07-23T06:22:35;5.95;;;4.68;;
58581;SDS011;44361;51.476;5.700;2022-07-23T06:25:01;6.25;;;4.40;;
58581;SDS011;44361;51.476;5.700;2022-07-23T06:27:27;8.93;;;4.57;;
58581;SDS011;44361;51.476;5.700;2022-07-23T06:29:52;7.65;;;4.45;;
58581;SDS011;44361;51.476;5.700;2022-07-23T06:32:18;6.05;;;4.20;;
58581;SDS011;44361;51.476;5.700;2022-07-23T06:34:44;9.23;;;5.30;;
58581;SDS011;44361;51.476;5.700;2022-07-23T06:37:09;7.45;;;4.25;;
58581;SDS011;44361;51.476;5.700;2022-07-23T06:39:35;7.50;;;4.63;;
58581;SDS011;44361;51.476;5.700;2022-07-23T06:42:01;7.53;;;4.30;;
58581;SDS011;44361;51.476;5.700;2022-07-23T06:44:26;7.55;;;4.47;;
58581;SDS011;44361;51.476;5.700;2022-07-23T06:46:52;4.95;;;4.07;;
58581;SDS011;44361;51.476;5.700;2022-07-23T06:49:17;6.88;;;3.97;;
58581;SDS011;44361;51.476;5.700;2022-07-23T06:51:43;5.43;;;3.30;;
58581;SDS011;44361;51.476;5.700;2022-07-23T06:54:09;7.18;;;3.53;;
58581;SDS011;44361;51.476;5.700;2022-07-23T06:56:34;3.38;;;2.40;;
58581;SDS011;44361;51.476;5.700;2022-07-23T06:59:00;7.05;;;3.15;;
58581;SDS011;44361;51.476;5.700;2022-07-23T07:01:25;5.30;;;2.65;;
58581;SDS011;44361;51.476;5.700;2022-07-23T07:03:51;3.67;;;3.28;;
58581;SDS011;44361;51.476;5.700;2022-07-23T07:06:17;5.40;;;3.60;;
58581;SDS011;44361;51.476;5.700;2022-07-23T07:08:42;5.72;;;3.28;;
58581;SDS011;44361;51.476;5.700;2022-07-23T07:11:08;6.25;;;3.33;;
58581;SDS011;44361;51.476;5.700;2022-07-23T07:13:35;10.25;;;3.67;;
58581;SDS011;44361;51.476;5.700;2022-07-23T07:16:01;5.88;;;4.03;;
58581;SDS011;44361;51.476;5.700;2022-07-23T07:18:27;4.78;;;3.35;;
58581;SDS011;44361;51.476;5.700;2022-07-23T07:20:54;7.45;;;3.63;;
58581;SDS011;44361;51.476;5.700;2022-07-23T07:23:19;5.38;;;3.75;;
58581;SDS011;44361;51.476;5.700;2022-07-23T07:25:45;5.53;;;3.53;;
58581;SDS011;44361;51.476;5.700;2022-07-23T07:28:11;4.82;;;3.28;;
58581;SDS011;44361;51.476;5.700;2022-07-23T07:30:37;4.22;;;2.95;;
58581;SDS011;44361;51.476;5.700;2022-07-23T07:33:03;4.60;;;3.30;;
58581;SDS011;44361;51.476;5.700;2022-07-23T07:35:29;4.68;;;3.30;;
58581;SDS011;44361;51.476;5.700;2022-07-23T07:37:56;6.40;;;3.72;;
58581;SDS011;44361;51.476;5.700;2022-07-23T07:40:21;6.40;;;3.95;;
58581;SDS011;44361;51.476;5.700;2022-07-23T07:42:47;6.00;;;3.67;;
58581;SDS011;44361;51.476;5.700;2022-07-23T07:45:14;6.63;;;4.15;;
58581;SDS011;44361;51.476;5.700;2022-07-23T07:47:40;5.30;;;3.38;;
58581;SDS011;44361;51.476;5.700;2022-07-23T07:50:06;4.05;;;3.40;;
58581;SDS011;44361;51.476;5.700;2022-07-23T07:52:33;4.32;;;3.50;;
58581;SDS011;44361;51.476;5.700;2022-07-23T07:55:01;5.95;;;3.42;;
58581;SDS011;44361;51.476;5.700;2022-07-23T07:57:27;4.75;;;3.17;;
58581;SDS011;44361;51.476;5.700;2022-07-23T07:59:53;5.28;;;3.40;;
58581;SDS011;44361;51.476;5.700;2022-07-23T08:02:18;4.18;;;3.20;;
58581;SDS011;44361;51.476;5.700;2022-07-23T08:04:44;5.28;;;3.60;;
58581;SDS011;44361;51.476;5.700;2022-07-23T08:07:10;8.63;;;3.75;;
58581;SDS011;44361;51.476;5.700;2022-07-23T08:09:35;8.40;;;3.90;;
58581;SDS011;44361;51.476;5.700;2022-07-23T08:12:01;7.18;;;3.90;;
58581;SDS011;44361;51.476;5.700;2022-07-23T08:14:26;2.97;;;2.63;;
58581;SDS011;44361;51.476;5.700;2022-07-23T08:16:52;6.57;;;3.63;;
58581;SDS011;44361;51.476;5.700;2022-07-23T08:19:18;4.63;;;3.28;;
58581;SDS011;44361;51.476;5.700;2022-07-23T08:21:43;4.70;;;3.08;;
58581;SDS011;44361;51.476;5.700;2022-07-23T08:24:09;6.15;;;3.47;;
58581;SDS011;44361;51.476;5.700;2022-07-23T08:26:34;7.68;;;3.42;;
58581;SDS011;44361;51.476;5.700;2022-07-23T08:29:00;7.10;;;3.25;;
58581;SDS011;44361;51.476;5.700;2022-07-23T08:31:26;6.35;;;3.20;;
58581;SDS011;44361;51.476;5.700;2022-07-23T08:33:51;5.72;;;2.72;;
58581;SDS011;44361;51.476;5.700;2022-07-23T08:36:17;4.20;;;2.72;;
58581;SDS011;44361;51.476;5.700;2022-07-23T08:38:43;4.18;;;2.58;;
58581;SDS011;44361;51.476;5.700;2022-07-23T08:41:08;5.22;;;2.50;;
58581;SDS011;44361;51.476;5.700;2022-07-23T08:43:34;5.28;;;2.60;;
58581;SDS011;44361;51.476;5.700;2022-07-23T08:46:01;3.75;;;2.17;;
58581;SDS011;44361;51.476;5.700;2022-07-23T08:48:28;6.53;;;2.10;;
58581;SDS011;44361;51.476;5.700;2022-07-23T08:50:57;2.90;;;2.30;;
58581;SDS011;44361;51.476;5.700;2022-07-23T08:53:24;6.22;;;2.47;;
58581;SDS011;44361;51.476;5.700;2022-07-23T08:55:52;3.20;;;2.50;;
58581;SDS011;44361;51.476;5.700;2022-07-23T08:58:19;2.70;;;1.83;;
58581;SDS011;44361;51.476;5.700;2022-07-23T09:00:46;3.25;;;2.20;;
58581;SDS011;44361;51.476;5.700;2022-07-23T09:03:16;7.75;;;2.22;;
58581;SDS011;44361;51.476;5.700;2022-07-23T09:05:42;4.75;;;2.35;;
58581;SDS011;44361;51.476;5.700;2022-07-23T09:08:09;3.20;;;2.20;;
58581;SDS011;44361;51.476;5.700;2022-07-23T09:10:49;2.50;;;1.92;;
58581;SDS011;44361;51.476;5.700;2022-07-23T09:13:26;6.47;;;2.50;;
58581;SDS011;44361;51.476;5.700;2022-07-23T09:15:54;3.13;;;1.95;;
58581;SDS011;44361;51.476;5.700;2022-07-23T09:18:33;5.40;;;2.10;;
58581;SDS011;44361;51.476;5.700;2022-07-23T09:21:06;3.30;;;2.20;;
58581;SDS011;44361;51.476;5.700;2022-07-23T09:23:37;4.97;;;2.37;;
58581;SDS011;44361;51.476;5.700;2022-07-23T09:26:16;3.72;;;2.47;;
58581;SDS011;44361;51.476;5.700;2022-07-23T09:29:02;4.45;;;2.70;;
58581;SDS011;44361;51.476;5.700;2022-07-23T09:34:16;4.78;;;2.67;;
58581;SDS011;44361;51.476;5.700;2022-07-23T09:36:44;4.50;;;3.17;;
58581;SDS011;44361;51.476;5.700;2022-07-23T09:39:11;5.75;;;3.78;;
58581;SDS011;44361;51.476;5.700;2022-07-23T09:41:38;6.32;;;3.42;;
58581;SDS011;44361;51.476;5.700;2022-07-23T09:44:12;9.07;;;3.55;;
58581;SDS011;44361;51.476;5.700;2022-07-23T09:46:44;4.43;;;3.10;;
58581;SDS011;44361;51.476;5.700;2022-07-23T09:49:21;4.18;;;2.97;;
58581;SDS011;44361;51.476;5.700;2022-07-23T09:56:49;6.70;;;3.38;;
58581;SDS011;44361;51.476;5.700;2022-07-23T09:59:16;6.28;;;3.45;;
58581;SDS011;44361;51.476;5.700;2022-07-23T10:01:44;5.50;;;2.80;;
58581;SDS011;44361;51.476;5.700;2022-07-23T10:04:11;4.30;;;2.78;;
58581;SDS011;44361;51.476;5.700;2022-07-23T10:06:37;3.35;;;2.47;;
58581;SDS011;44361;51.476;5.700;2022-07-23T10:09:05;4.20;;;2.45;;
58581;SDS011;44361;51.476;5.700;2022-07-23T10:11:33;6.95;;;4.53;;
58581;SDS011;44361;51.476;5.700;2022-07-23T10:13:59;5.78;;;3.08;;
58581;SDS011;44361;51.476;5.700;2022-07-23T10:16:28;4.72;;;3.00;;
58581;SDS011;44361;51.476;5.700;2022-07-23T10:18:54;4.57;;;2.90;;
58581;SDS011;44361;51.476;5.700;2022-07-23T10:29:42;2.92;;;1.80;;
58581;SDS011;44361;51.476;5.700;2022-07-23T10:37:36;4.18;;;1.85;;
58581;SDS011;44361;51.476;5.700;2022-07-23T10:42:39;2.53;;;2.10;;
58581;SDS011;44361;51.476;5.700;2022-07-23T10:47:51;5.32;;;1.90;;
58581;SDS011;44361;51.476;5.700;2022-07-23T10:57:58;1.42;;;1.00;;
58581;SDS011;44361;51.476;5.700;2022-07-23T11:00:26;2.80;;;1.55;;
58581;SDS011;44361;51.476;5.700;2022-07-23T11:02:59;2.28;;;1.20;;
58581;SDS011;44361;51.476;5.700;2022-07-23T11:10:37;1.58;;;1.20;;
58581;SDS011;44361;51.476;5.700;2022-07-23T11:16:12;2.88;;;1.60;;
58581;SDS011;44361;51.476;5.700;2022-07-23T11:23:58;1.60;;;1.30;;
58581;SDS011;44361;51.476;5.700;2022-07-23T11:26:40;3.35;;;1.48;;
58581;SDS011;44361;51.476;5.700;2022-07-23T11:34:43;2.42;;;1.80;;
58581;SDS011;44361;51.476;5.700;2022-07-23T11:37:33;3.13;;;1.80;;
58581;SDS011;44361;51.476;5.700;2022-07-23T11:40:01;4.07;;;2.22;;
58581;SDS011;44361;51.476;5.700;2022-07-23T11:42:31;2.10;;;1.70;;
58581;SDS011;44361;51.476;5.700;2022-07-23T11:44:57;3.28;;;1.58;;
58581;SDS011;44361;51.476;5.700;2022-07-23T11:47:23;3.53;;;1.38;;
58581;SDS011;44361;51.476;5.700;2022-07-23T11:49:55;3.47;;;1.30;;
58581;SDS011;44361;51.476;5.700;2022-07-23T11:52:23;4.25;;;1.83;;
58581;SDS011;44361;51.476;5.700;2022-07-23T11:54:51;4.47;;;2.38;;
58581;SDS011;44361;51.476;5.700;2022-07-23T11:59:58;6.20;;;2.53;;
58581;SDS011;44361;51.476;5.700;2022-07-23T12:02:32;3.47;;;2.28;;
58581;SDS011;44361;51.476;5.700;2022-07-23T12:04:59;3.10;;;2.10;;
58581;SDS011;44361;51.476;5.700;2022-07-23T12:07:46;4.72;;;2.15;;
58581;SDS011;44361;51.476;5.700;2022-07-23T12:10:20;2.78;;;1.98;;
58581;SDS011;44361;51.476;5.700;2022-07-23T12:12:52;2.63;;;1.67;;
58581;SDS011;44361;51.476;5.700;2022-07-23T12:15:21;4.32;;;2.13;;
58581;SDS011;44361;51.476;5.700;2022-07-23T12:17:49;3.50;;;1.85;;
58581;SDS011;44361;51.476;5.700;2022-07-23T12:20:16;4.13;;;1.30;;
58581;SDS011;44361;51.476;5.700;2022-07-23T12:22:46;2.72;;;1.65;;
58581;SDS011;44361;51.476;5.700;2022-07-23T12:27:40;4.13;;;1.60;;
58581;SDS011;44361;51.476;5.700;2022-07-23T12:30:16;3.70;;;2.30;;
58581;SDS011;44361;51.476;5.700;2022-07-23T12:32:44;2.75;;;1.85;;
58581;SDS011;44361;51.476;5.700;2022-07-23T12:35:11;3.08;;;1.80;;
58581;SDS011;44361;51.476;5.700;2022-07-23T12:37:41;3.40;;;2.50;;
58581;SDS011;44361;51.476;5.700;2022-07-23T12:40:18;3.80;;;2.00;;
58581;SDS011;44361;51.476;5.700;2022-07-23T12:42:46;3.58;;;2.22;;
58581;SDS011;44361;51.476;5.700;2022-07-23T12:45:13;2.38;;;1.50;;
58581;SDS011;44361;51.476;5.700;2022-07-23T12:47:59;5.30;;;1.85;;
58581;SDS011;44361;51.476;5.700;2022-07-23T12:50:39;4.18;;;2.08;;
58581;SDS011;44361;51.476;5.700;2022-07-23T12:53:16;2.92;;;1.73;;
58581;SDS011;44361;51.476;5.700;2022-07-23T12:55:44;3.90;;;2.13;;
58581;SDS011;44361;51.476;5.700;2022-07-23T12:58:12;3.63;;;2.30;;
58581;SDS011;44361;51.476;5.700;2022-07-23T13:03:23;4.97;;;3.20;;
58581;SDS011;44361;51.476;5.700;2022-07-23T13:06:10;4.60;;;2.22;;
58581;SDS011;44361;51.476;5.700;2022-07-23T13:08:37;5.20;;;2.08;;
58581;SDS011;44361;51.476;5.700;2022-07-23T13:11:05;3.67;;;2.30;;
58581;SDS011;44361;51.476;5.700;2022-07-23T13:13:31;2.70;;;1.92;;
58581;SDS011;44361;51.476;5.700;2022-07-23T13:15:58;2.75;;;1.95;;
58581;SDS011;44361;51.476;5.700;2022-07-23T13:18:24;5.35;;;2.30;;
58581;SDS011;44361;51.476;5.700;2022-07-23T13:20:51;4.50;;;2.60;;
58581;SDS011;44361;51.476;5.700;2022-07-23T13:23:17;2.92;;;2.08;;
58581;SDS011;44361;51.476;5.700;2022-07-23T13:25:43;5.50;;;2.70;;
58581;SDS011;44361;51.476;5.700;2022-07-23T13:28:09;3.92;;;2.40;;
58581;SDS011;44361;51.476;5.700;2022-07-23T13:30:35;6.05;;;2.25;;
58581;SDS011;44361;51.476;5.700;2022-07-23T13:33:01;3.80;;;2.65;;
58581;SDS011;44361;51.476;5.700;2022-07-23T13:35:28;4.80;;;2.95;;
58581;SDS011;44361;51.476;5.700;2022-07-23T13:37:54;5.75;;;2.08;;
58581;SDS011;44361;51.476;5.700;2022-07-23T13:40:19;2.72;;;2.25;;
58581;SDS011;44361;51.476;5.700;2022-07-23T13:42:45;4.97;;;2.08;;
58581;SDS011;44361;51.476;5.700;2022-07-23T13:45:11;2.85;;;2.17;;
58581;SDS011;44361;51.476;5.700;2022-07-23T13:47:37;3.95;;;2.25;;
58581;SDS011;44361;51.476;5.700;2022-07-23T13:50:03;6.60;;;3.20;;
58581;SDS011;44361;51.476;5.700;2022-07-23T13:52:30;4.10;;;2.40;;
58581;SDS011;44361;51.476;5.700;2022-07-23T13:54:58;4.63;;;2.83;;
58581;SDS011;44361;51.476;5.700;2022-07-23T13:57:25;8.20;;;3.95;;
58581;SDS011;44361;51.476;5.700;2022-07-23T13:59:51;4.13;;;2.55;;
58581;SDS011;44361;51.476;5.700;2022-07-23T14:02:17;5.05;;;2.38;;
58581;SDS011;44361;51.476;5.700;2022-07-23T14:04:43;4.43;;;3.08;;
58581;SDS011;44361;51.476;5.700;2022-07-23T14:07:09;5.57;;;3.05;;
58581;SDS011;44361;51.476;5.700;2022-07-23T14:09:34;5.13;;;2.80;;
58581;SDS011;44361;51.476;5.700;2022-07-23T14:12:00;4.03;;;2.83;;
58581;SDS011;44361;51.476;5.700;2022-07-23T14:14:26;3.22;;;2.15;;
58581;SDS011;44361;51.476;5.700;2022-07-23T14:16:51;5.40;;;2.10;;
58581;SDS011;44361;51.476;5.700;2022-07-23T14:19:17;4.30;;;2.30;;
58581;SDS011;44361;51.476;5.700;2022-07-23T14:21:42;3.03;;;2.13;;
58581;SDS011;44361;51.476;5.700;2022-07-23T14:24:09;4.57;;;2.30;;
58581;SDS011;44361;51.476;5.700;2022-07-23T14:26:34;4.43;;;2.72;;
58581;SDS011;44361;51.476;5.700;2022-07-23T14:29:00;3.40;;;2.42;;
58581;SDS011;44361;51.476;5.700;2022-07-23T14:31:26;3.97;;;2.75;;
58581;SDS011;44361;51.476;5.700;2022-07-23T14:33:52;6.13;;;2.42;;
58581;SDS011;44361;51.476;5.700;2022-07-23T14:36:17;3.63;;;2.70;;
58581;SDS011;44361;51.476;5.700;2022-07-23T14:38:43;3.90;;;2.60;;
58581;SDS011;44361;51.476;5.700;2022-07-23T14:41:09;4.75;;;2.47;;
58581;SDS011;44361;51.476;5.700;2022-07-23T14:43:36;3.58;;;1.73;;
58581;SDS011;44361;51.476;5.700;2022-07-23T14:46:01;4.07;;;2.25;;
58581;SDS011;44361;51.476;5.700;2022-07-23T14:48:27;4.53;;;2.47;;
58581;SDS011;44361;51.476;5.700;2022-07-23T14:50:53;2.75;;;1.92;;
58581;SDS011;44361;51.476;5.700;2022-07-23T14:53:18;4.57;;;2.20;;
58581;SDS011;44361;51.476;5.700;2022-07-23T14:55:44;4.40;;;2.40;;
58581;SDS011;44361;51.476;5.700;2022-07-23T14:58:10;3.92;;;2.42;;
58581;SDS011;44361;51.476;5.700;2022-07-23T15:00:35;6.70;;;2.05;;
58581;SDS011;44361;51.476;5.700;2022-07-23T15:03:01;2.10;;;1.90;;
58581;SDS011;44361;51.476;5.700;2022-07-23T15:05:26;4.38;;;2.60;;
58581;SDS011;44361;51.476;5.700;2022-07-23T15:07:53;2.55;;;1.90;;
58581;SDS011;44361;51.476;5.700;2022-07-23T15:10:19;3.17;;;2.17;;
58581;SDS011;44361;51.476;5.700;2022-07-23T15:12:45;4.82;;;1.98;;
58581;SDS011;44361;51.476;5.700;2022-07-23T15:15:10;4.45;;;1.92;;
58581;SDS011;44361;51.476;5.700;2022-07-23T15:17:36;3.47;;;2.08;;
58581;SDS011;44361;51.476;5.700;2022-07-23T15:20:02;3.08;;;2.10;;
58581;SDS011;44361;51.476;5.700;2022-07-23T15:22:28;2.63;;;1.92;;
58581;SDS011;44361;51.476;5.700;2022-07-23T15:24:54;3.38;;;1.92;;
58581;SDS011;44361;51.476;5.700;2022-07-23T15:27:19;3.75;;;2.20;;
58581;SDS011;44361;51.476;5.700;2022-07-23T15:29:45;3.75;;;2.15;;
58581;SDS011;44361;51.476;5.700;2022-07-23T15:32:11;3.03;;;2.03;;
58581;SDS011;44361;51.476;5.700;2022-07-23T15:34:37;3.15;;;1.85;;
58581;SDS011;44361;51.476;5.700;2022-07-23T15:37:03;3.22;;;2.00;;
58581;SDS011;44361;51.476;5.700;2022-07-23T15:39:32;4.90;;;1.80;;
58581;SDS011;44361;51.476;5.700;2022-07-23T15:42:01;3.88;;;1.88;;